createdAt,value
2023-04-24T00:00:52.227Z,3.90
2023-04-24T00:03:22.319Z,3.80
2023-04-24T00:05:49.872Z,3.90
2023-04-24T00:08:17.483Z,4.00
2023-04-24T00:10:45.002Z,4.00
2023-04-24T00:13:12.331Z,3.90
2023-04-24T00:15:39.724Z,4.00
2023-04-24T00:18:07.379Z,4.10
2023-04-24T00:20:36.919Z,4.10
2023-04-24T00:23:04.740Z,4.00
2023-04-24T00:25:32.281Z,4.00
2023-04-24T00:27:59.746Z,4.00
2023-04-24T00:30:27.102Z,3.90
2023-04-24T00:32:54.562Z,3.90
2023-04-24T00:35:22.120Z,3.90
2023-04-24T00:37:49.590Z,3.90
2023-04-24T00:40:17.016Z,3.90
2023-04-24T00:42:46.225Z,4.00
2023-04-24T00:45:14.516Z,4.00
2023-04-24T00:47:43.683Z,3.90
2023-04-24T00:50:12.498Z,3.80
2023-04-24T00:52:42.084Z,3.80
2023-04-24T00:55:10.157Z,3.80
2023-04-24T00:57:38.489Z,3.80
2023-04-24T01:00:09.131Z,3.80
2023-04-24T01:02:36.733Z,3.70
2023-04-24T01:05:04.851Z,3.70
2023-04-24T01:07:32.820Z,3.60
2023-04-24T01:10:00.573Z,3.70
2023-04-24T01:12:27.927Z,3.80
2023-04-24T01:14:58.538Z,3.70
2023-04-24T01:17:26.412Z,3.80
2023-04-24T01:19:57.996Z,3.80
2023-04-24T01:22:25.568Z,3.80
2023-04-24T01:24:54.194Z,3.80
2023-04-24T01:27:21.664Z,3.60
2023-04-24T01:29:50.526Z,3.70
2023-04-24T01:32:18.168Z,3.60
2023-04-24T01:34:46.491Z,3.60
2023-04-24T01:37:14.059Z,3.60
2023-04-24T01:39:42.091Z,3.60
2023-04-24T01:42:09.890Z,3.70
2023-04-24T01:44:37.419Z,3.70
2023-04-24T01:47:05.187Z,3.60
2023-04-24T01:49:34.073Z,3.50
2023-04-24T01:52:01.625Z,3.40
2023-04-24T01:54:29.039Z,3.40
2023-04-24T01:56:56.659Z,3.40
2023-04-24T01:59:26.628Z,3.40
2023-04-24T02:01:54.048Z,3.50
2023-04-24T02:04:21.493Z,3.50
2023-04-24T02:06:48.859Z,3.60
2023-04-24T02:09:16.248Z,3.50
2023-04-24T02:11:43.637Z,3.50
2023-04-24T02:14:11.092Z,3.60
2023-04-24T02:16:38.553Z,3.50
2023-04-24T02:19:06.294Z,3.50
2023-04-24T02:21:34.029Z,3.50
2023-04-24T02:24:01.616Z,3.50
2023-04-24T02:26:29.253Z,3.30
2023-04-24T02:28:56.737Z,3.30
2023-04-24T02:31:24.174Z,3.20
2023-04-24T02:33:51.566Z,3.10
2023-04-24T02:36:19.034Z,3.20
2023-04-24T02:38:46.724Z,3.10
2023-04-24T02:41:14.098Z,3.10
2023-04-24T02:43:41.567Z,3.10
2023-04-24T02:46:09.067Z,3.10
2023-04-24T02:48:36.501Z,3.20
2023-04-24T02:51:04.401Z,3.20
2023-04-24T02:53:32.130Z,3.20
2023-04-24T02:55:59.895Z,3.20
2023-04-24T02:58:27.545Z,3.10
2023-04-24T03:01:01.776Z,3.10
2023-04-24T03:03:29.388Z,3.10
2023-04-24T03:05:56.983Z,3.00
2023-04-24T03:08:24.690Z,3.10
2023-04-24T03:10:54.761Z,3.20
2023-04-24T03:13:22.151Z,3.20
2023-04-24T03:15:49.553Z,3.20
2023-04-24T03:18:17.064Z,3.20
2023-04-24T03:20:46.591Z,3.20
2023-04-24T03:23:14.067Z,3.10
2023-04-24T03:25:43.966Z,3.00
2023-04-24T03:28:11.322Z,2.90
2023-04-24T03:30:38.807Z,3.10
2023-04-24T03:33:06.233Z,3.10
2023-04-24T03:35:33.724Z,3.10
2023-04-24T03:38:01.304Z,3.20
2023-04-24T03:40:30.838Z,2.80
2023-04-24T03:42:58.325Z,2.70
2023-04-24T03:45:25.720Z,2.80
2023-04-24T03:47:53.109Z,2.80
2023-04-24T03:50:20.816Z,2.90
2023-04-24T03:52:48.256Z,3.00
2023-04-24T03:55:15.936Z,3.00
2023-04-24T03:57:43.286Z,3.00
2023-04-24T04:00:11.541Z,2.90
2023-04-24T04:02:39.018Z,2.80
2023-04-24T04:05:06.767Z,2.80
2023-04-24T04:07:34.340Z,2.90
2023-04-24T04:10:01.796Z,2.90
2023-04-24T04:12:29.130Z,2.80
2023-04-24T04:14:56.535Z,2.80
2023-04-24T04:17:24.002Z,3.00
2023-04-24T04:19:51.960Z,3.00
2023-04-24T04:22:19.352Z,3.00
2023-04-24T04:24:47.482Z,3.00
2023-04-24T04:27:15.077Z,2.80
2023-04-24T04:29:43.511Z,2.90
2023-04-24T04:32:11.273Z,2.60
2023-04-24T04:34:38.895Z,2.50
2023-04-24T04:37:07.162Z,2.40
2023-04-24T04:39:34.531Z,2.40
2023-04-24T04:42:02.071Z,2.50
2023-04-24T04:44:30.582Z,2.60
2023-04-24T04:46:58.574Z,2.80
2023-04-24T04:49:26.202Z,2.80
2023-04-24T04:51:54.313Z,2.60
2023-04-24T04:54:21.702Z,2.70
2023-04-24T04:56:51.864Z,2.70
2023-04-24T04:59:19.342Z,2.80
2023-04-24T05:01:46.711Z,2.50
2023-04-24T05:04:14.240Z,2.50
2023-04-24T05:06:41.801Z,2.60
2023-04-24T05:09:09.167Z,2.80
2023-04-24T05:11:36.621Z,2.80
2023-04-24T05:14:04.130Z,3.00
2023-04-24T05:16:32.164Z,3.10
2023-04-24T05:18:59.836Z,3.10
2023-04-24T05:21:28.055Z,3.10
2023-04-24T05:23:58.510Z,3.10
2023-04-24T05:26:25.905Z,3.10
2023-04-24T05:28:53.283Z,3.10
2023-04-24T05:31:23.480Z,2.90
2023-04-24T05:33:51.008Z,3.00
2023-04-24T05:36:18.419Z,2.80
2023-04-24T05:38:45.795Z,2.80
2023-04-24T05:41:13.136Z,2.80
2023-04-24T05:43:40.540Z,3.00
2023-04-24T05:46:07.906Z,2.80
2023-04-24T05:48:35.374Z,2.60
2023-04-24T05:51:02.724Z,2.60
2023-04-24T05:53:30.199Z,2.80
2023-04-24T05:55:57.648Z,2.90
2023-04-24T05:58:25.121Z,2.80
2023-04-24T06:00:52.544Z,2.90
2023-04-24T06:03:20.210Z,3.00
2023-04-24T06:05:47.806Z,3.10
2023-04-24T06:08:15.156Z,3.30
2023-04-24T06:10:42.533Z,3.40
2023-04-24T06:13:10.025Z,3.40
2023-04-24T06:15:37.427Z,3.30
2023-04-24T06:18:05.314Z,3.40
2023-04-24T06:20:32.889Z,3.50
2023-04-24T06:23:00.272Z,3.20
2023-04-24T06:25:28.166Z,3.10
2023-04-24T06:27:56.915Z,3.20
2023-04-24T06:30:24.534Z,3.20
2023-04-24T06:32:52.432Z,3.00
2023-04-24T06:35:19.966Z,3.00
2023-04-24T06:37:47.527Z,3.20
2023-04-24T06:40:15.255Z,3.40
2023-04-24T06:42:43.720Z,3.40
2023-04-24T06:45:11.776Z,3.50
2023-04-24T06:47:39.471Z,3.50
2023-04-24T06:50:07.469Z,3.50
2023-04-24T06:52:34.817Z,3.40
2023-04-24T06:55:04.040Z,3.40
2023-04-24T06:57:33.257Z,3.60
2023-04-24T07:00:00.681Z,3.60
2023-04-24T07:02:28.175Z,3.40
2023-04-24T07:04:55.680Z,3.50
2023-04-24T07:07:25.337Z,3.70
2023-04-24T07:09:53.019Z,4.00
2023-04-24T07:12:21.765Z,3.90
2023-04-24T07:14:49.292Z,4.10
2023-04-24T07:17:16.676Z,4.20
2023-04-24T07:19:44.261Z,4.40
2023-04-24T07:22:17.896Z,4.60
2023-04-24T07:24:46.118Z,4.30
2023-04-24T07:27:13.634Z,4.30
2023-04-24T07:29:43.966Z,4.40
2023-04-24T07:32:11.616Z,4.40
2023-04-24T07:34:38.980Z,4.30
2023-04-24T07:37:06.432Z,3.80
2023-04-24T07:39:33.978Z,4.10
2023-04-24T07:42:03.501Z,4.00
2023-04-24T07:44:30.929Z,4.30
2023-04-24T07:46:58.418Z,4.00
2023-04-24T07:49:26.067Z,4.20
2023-04-24T07:51:53.616Z,4.00
2023-04-24T07:54:21.418Z,3.90
2023-04-24T07:56:49.466Z,4.00
2023-04-24T07:59:17.486Z,4.20
2023-04-24T08:01:44.939Z,4.10
2023-04-24T08:04:12.670Z,4.30
2023-04-24T08:06:40.172Z,4.40
2023-04-24T08:09:07.684Z,4.40
2023-04-24T08:11:35.004Z,4.40
2023-04-24T08:14:02.423Z,4.50
2023-04-24T08:16:29.940Z,4.50
2023-04-24T08:18:57.422Z,4.60
2023-04-24T08:21:24.942Z,4.60
2023-04-24T08:23:52.434Z,4.90
2023-04-24T08:26:19.823Z,5.20
2023-04-24T08:28:47.313Z,5.00
2023-04-24T08:31:14.776Z,4.80
2023-04-24T08:33:42.241Z,4.80
2023-04-24T08:36:09.631Z,4.80
2023-04-24T08:38:37.101Z,5.00
2023-04-24T08:41:06.269Z,5.00
2023-04-24T08:43:37.755Z,4.90
2023-04-24T08:46:09.518Z,5.20
2023-04-24T08:48:40.675Z,5.20
2023-04-24T08:51:11.083Z,5.20
2023-04-24T08:53:41.894Z,5.40
2023-04-24T08:56:09.351Z,5.40
2023-04-24T08:58:37.424Z,5.30
2023-04-24T09:01:06.586Z,5.40
2023-04-24T09:03:35.125Z,4.70
2023-04-24T09:06:03.664Z,4.80
2023-04-24T09:08:32.237Z,4.60
2023-04-24T09:11:00.291Z,4.70
2023-04-24T09:13:28.489Z,5.00
2023-04-24T09:15:58.565Z,4.70
2023-04-24T09:18:27.023Z,4.60
2023-04-24T09:21:06.237Z,4.30
2023-04-24T09:23:34.168Z,4.70
2023-04-24T09:26:03.430Z,4.60
2023-04-24T09:28:41.071Z,4.20
2023-04-24T09:31:19.610Z,4.40
2023-04-24T09:34:01.204Z,4.60
2023-04-24T09:36:42.271Z,4.70
2023-04-24T09:39:17.095Z,5.00
2023-04-24T09:41:59.902Z,5.30
2023-04-24T09:44:29.482Z,5.10
2023-04-24T09:46:59.456Z,5.10
2023-04-24T09:49:28.092Z,5.40
2023-04-24T09:52:09.550Z,5.60
2023-04-24T09:54:41.276Z,5.90
2023-04-24T09:57:10.517Z,6.10
2023-04-24T09:59:45.676Z,5.50
2023-04-24T10:02:21.287Z,5.50
2023-04-24T10:05:00.873Z,5.30
2023-04-24T10:07:29.992Z,5.00
2023-04-24T10:09:58.201Z,5.10
2023-04-24T10:12:26.512Z,5.10
2023-04-24T10:14:54.634Z,5.30
2023-04-24T10:17:23.375Z,5.20
2023-04-24T10:19:51.145Z,5.00
2023-04-24T10:22:19.441Z,5.20
2023-04-24T10:24:48.655Z,5.50
2023-04-24T10:27:16.766Z,5.50
2023-04-24T10:29:46.190Z,5.80
2023-04-24T10:32:13.620Z,5.90
2023-04-24T10:34:41.284Z,6.10
2023-04-24T10:37:08.957Z,6.10
2023-04-24T10:39:38.714Z,6.10
2023-04-24T10:42:16.985Z,6.00
2023-04-24T10:44:44.586Z,6.20
2023-04-24T10:47:15.709Z,6.10
2023-04-24T10:49:43.853Z,6.10
2023-04-24T10:52:12.086Z,5.80
2023-04-24T10:54:43.496Z,5.60
2023-04-24T10:57:25.888Z,5.80
2023-04-24T11:00:14.814Z,5.90
2023-04-24T11:02:50.059Z,5.40
2023-04-24T11:05:20.014Z,5.50
2023-04-24T11:08:17.300Z,5.60
2023-04-24T11:10:49.241Z,5.60
2023-04-24T11:13:23.600Z,5.70
2023-04-24T11:16:16.997Z,5.80
2023-04-24T11:18:52.088Z,5.50
2023-04-24T11:21:19.989Z,5.50
2023-04-24T11:23:48.190Z,5.20
2023-04-24T11:26:26.050Z,5.20
2023-04-24T11:28:53.442Z,5.10
2023-04-24T11:31:42.311Z,5.40
2023-04-24T11:34:16.034Z,5.60
2023-04-24T11:36:48.486Z,5.40
2023-04-24T11:39:16.711Z,5.40
2023-04-24T11:41:44.121Z,5.40
2023-04-24T11:44:12.873Z,5.10
2023-04-24T11:46:41.605Z,5.00
2023-04-24T11:49:09.641Z,5.20
2023-04-24T11:51:48.762Z,5.40
2023-04-24T11:54:20.888Z,5.50
2023-04-24T11:56:49.226Z,5.50
2023-04-24T11:59:16.788Z,5.50
2023-04-24T12:01:46.392Z,5.50
2023-04-24T12:04:14.766Z,5.40
2023-04-24T12:07:00.231Z,5.60
2023-04-24T12:09:27.677Z,5.50
2023-04-24T12:11:59.148Z,5.60
2023-04-24T12:14:26.753Z,5.50
2023-04-24T12:16:54.418Z,5.40
2023-04-24T12:19:23.613Z,5.40
2023-04-24T12:22:06.163Z,5.30
2023-04-24T12:24:33.859Z,5.30
2023-04-24T12:27:02.685Z,5.40
2023-04-24T12:29:33.077Z,5.20
2023-04-24T12:32:00.643Z,5.10
2023-04-24T12:34:28.133Z,5.00
2023-04-24T12:36:55.625Z,5.30
2023-04-24T12:39:25.173Z,5.30
2023-04-24T12:42:00.475Z,5.60
2023-04-24T12:44:33.006Z,5.30
2023-04-24T12:47:00.599Z,5.50
2023-04-24T12:49:29.161Z,5.10
2023-04-24T12:51:56.614Z,5.30
2023-04-24T12:54:24.421Z,5.40
2023-04-24T12:56:54.596Z,5.50
2023-04-24T12:59:22.003Z,5.70
2023-04-24T13:01:49.454Z,5.90
2023-04-24T13:04:18.296Z,5.50
2023-04-24T13:06:45.783Z,5.40
2023-04-24T13:09:13.279Z,5.20
2023-04-24T13:11:43.253Z,5.30
2023-04-24T13:14:10.890Z,5.10
2023-04-24T13:16:38.449Z,5.10
2023-04-24T13:19:05.838Z,5.40
2023-04-24T13:21:33.252Z,5.40
2023-04-24T13:24:01.037Z,5.20
2023-04-24T13:26:28.874Z,5.20
2023-04-24T13:28:56.323Z,5.40
2023-04-24T13:31:23.963Z,5.60
2023-04-24T13:33:51.430Z,5.80
2023-04-24T13:36:18.999Z,5.70
2023-04-24T13:38:46.592Z,5.60
2023-04-24T13:41:13.986Z,5.40
2023-04-24T13:43:44.052Z,5.20
2023-04-24T13:46:11.825Z,5.40
2023-04-24T13:48:39.285Z,5.40
2023-04-24T13:51:06.739Z,5.60
2023-04-24T13:53:37.225Z,5.60
2023-04-24T13:56:04.637Z,5.30
2023-04-24T13:58:32.407Z,5.60
2023-04-24T14:00:59.983Z,5.60
2023-04-24T14:03:27.692Z,5.50
2023-04-24T14:05:55.206Z,5.10
2023-04-24T14:08:22.580Z,5.00
2023-04-24T14:10:50.064Z,5.00
2023-04-24T14:13:17.847Z,5.00
2023-04-24T14:15:45.417Z,5.00
2023-04-24T14:18:13.120Z,4.90
2023-04-24T14:20:40.626Z,5.00
2023-04-24T14:23:08.594Z,5.10
2023-04-24T14:25:38.986Z,4.90
2023-04-24T14:28:09.439Z,4.60
2023-04-24T14:30:38.745Z,4.30
2023-04-24T14:33:08.518Z,4.50
2023-04-24T14:35:36.987Z,4.50
2023-04-24T14:38:04.357Z,4.50
2023-04-24T14:40:58.396Z,4.60
2023-04-24T14:43:19.908Z,4.60
2023-04-24T14:45:47.304Z,4.40
2023-04-24T14:48:18.500Z,4.60
2023-04-24T14:50:46.816Z,4.90
2023-04-24T14:53:14.391Z,4.80
2023-04-24T14:55:41.877Z,4.40
2023-04-24T14:58:09.346Z,4.50
2023-04-24T15:00:36.748Z,4.60
2023-04-24T15:03:05.055Z,4.50
2023-04-24T15:05:33.484Z,4.50
2023-04-24T15:08:01.053Z,4.30
2023-04-24T15:10:28.583Z,4.40
2023-04-24T15:12:56.522Z,4.40
2023-04-24T15:15:23.925Z,4.50
2023-04-24T15:17:51.537Z,4.70
2023-04-24T15:20:19.411Z,4.80
2023-04-24T15:22:47.078Z,4.90
2023-04-24T15:25:14.697Z,4.60
2023-04-24T15:27:46.398Z,4.40
2023-04-24T15:30:14.640Z,4.30
2023-04-24T15:32:42.381Z,4.40
2023-04-24T15:35:10.692Z,4.10
2023-04-24T15:37:39.743Z,4.00
2023-04-24T15:40:08.656Z,3.90
2023-04-24T15:42:36.750Z,3.90
2023-04-24T15:45:04.729Z,3.80
2023-04-24T15:47:34.493Z,3.90
2023-04-24T15:50:02.181Z,4.00
2023-04-24T15:52:29.610Z,4.10
2023-04-24T15:54:57.078Z,4.00
2023-04-24T15:57:24.540Z,3.90
2023-04-24T15:59:51.909Z,3.70
2023-04-24T16:02:20.901Z,3.80
2023-04-24T16:04:49.909Z,3.90
2023-04-24T16:07:21.019Z,3.90
2023-04-24T16:09:48.366Z,4.00
2023-04-24T16:12:15.870Z,4.00
2023-04-24T16:14:45.398Z,4.00
2023-04-24T16:17:14.849Z,4.10
2023-04-24T16:19:42.347Z,3.80
2023-04-24T16:22:11.112Z,3.70
2023-04-24T16:24:39.278Z,3.70
2023-04-24T16:27:06.805Z,3.60
2023-04-24T16:29:34.384Z,3.60
2023-04-24T16:32:02.024Z,3.60
2023-04-24T16:34:29.465Z,3.70
2023-04-24T16:36:56.928Z,3.60
2023-04-24T16:39:24.395Z,3.70
2023-04-24T16:41:53.163Z,3.60
2023-04-24T16:44:21.064Z,3.60
2023-04-24T16:46:48.467Z,3.40
2023-04-24T16:49:15.983Z,3.30
2023-04-24T16:51:43.697Z,3.30
2023-04-24T16:54:11.209Z,3.40
2023-04-24T16:56:38.637Z,3.30
2023-04-24T16:59:07.258Z,3.10
2023-04-24T17:01:35.461Z,3.00
2023-04-24T17:04:02.985Z,3.10
2023-04-24T17:06:31.450Z,3.20
2023-04-24T17:09:00.631Z,3.20
2023-04-24T17:11:29.907Z,3.20
2023-04-24T17:14:01.360Z,3.30
2023-04-24T17:16:29.658Z,3.30
2023-04-24T17:18:57.254Z,3.20
2023-04-24T17:21:25.076Z,3.30
2023-04-24T17:23:52.562Z,3.30
2023-04-24T17:26:20.624Z,3.30
2023-04-24T17:28:48.284Z,3.10
2023-04-24T17:31:16.041Z,3.20
2023-04-24T17:33:43.669Z,3.10
2023-04-24T17:36:11.185Z,3.00
2023-04-24T17:38:38.909Z,3.00
2023-04-24T17:41:06.996Z,3.20
2023-04-24T17:43:34.682Z,3.20
2023-04-24T17:46:02.657Z,3.20
2023-04-24T17:48:30.123Z,3.30
2023-04-24T17:50:57.543Z,3.30
2023-04-24T17:53:24.963Z,3.30
2023-04-24T17:55:54.445Z,3.30
2023-04-24T17:58:22.472Z,3.20
2023-04-24T18:00:58.984Z,3.10
2023-04-24T18:03:27.129Z,3.20
2023-04-24T18:05:55.063Z,3.10
2023-04-24T18:08:23.245Z,3.10
2023-04-24T18:10:52.206Z,3.10
2023-04-24T18:13:20.848Z,3.10
2023-04-24T18:15:49.740Z,3.10
2023-04-24T18:18:18.895Z,3.00
2023-04-24T18:20:47.962Z,3.10
2023-04-24T18:23:17.620Z,2.90
2023-04-24T18:25:46.305Z,2.90
2023-04-24T18:28:17.879Z,2.90
2023-04-24T18:30:46.939Z,2.90
2023-04-24T18:33:19.315Z,2.90
2023-04-24T18:35:47.376Z,2.80
2023-04-24T18:38:14.788Z,2.90
2023-04-24T18:40:46.392Z,2.70
2023-04-24T18:43:14.476Z,2.80
2023-04-24T18:45:41.983Z,2.60
2023-04-24T18:48:09.497Z,2.60
2023-04-24T18:50:39.447Z,2.60
2023-04-24T18:53:14.381Z,2.60
2023-04-24T18:55:43.298Z,2.60
2023-04-24T18:58:11.726Z,2.60
2023-04-24T19:00:40.598Z,2.70
2023-04-24T19:03:11.301Z,2.70
2023-04-24T19:05:39.283Z,2.80
2023-04-24T19:08:06.823Z,2.70
2023-04-24T19:10:35.974Z,2.70
2023-04-24T19:13:04.589Z,2.60
2023-04-24T19:15:33.917Z,2.60
2023-04-24T19:18:01.551Z,2.70
2023-04-24T19:20:30.465Z,2.70
2023-04-24T19:22:58.819Z,2.70
2023-04-24T19:25:28.016Z,2.70
2023-04-24T19:27:57.123Z,2.80
2023-04-24T19:30:27.487Z,2.70
2023-04-24T19:32:57.052Z,2.70
2023-04-24T19:35:26.117Z,2.70
2023-04-24T19:37:55.650Z,2.70
2023-04-24T19:40:25.242Z,2.70
2023-04-24T19:42:53.821Z,2.70
2023-04-24T19:45:22.379Z,2.60
2023-04-24T19:47:50.286Z,2.70
2023-04-24T19:50:21.509Z,2.80
2023-04-24T19:52:50.225Z,2.70
2023-04-24T19:55:17.773Z,2.70
2023-04-24T19:57:45.743Z,2.70
2023-04-24T20:00:16.780Z,2.60
2023-04-24T20:02:44.512Z,2.40
2023-04-24T20:05:12.678Z,2.50
2023-04-24T20:07:45.748Z,2.70
2023-04-24T20:10:13.661Z,2.70
2023-04-24T20:12:41.460Z,2.70
2023-04-24T20:15:09.448Z,2.70
2023-04-24T20:17:36.808Z,2.80
2023-04-24T20:20:04.549Z,2.80
2023-04-24T20:22:39.028Z,2.80
2023-04-24T20:25:08.541Z,2.80
2023-04-24T20:27:36.538Z,2.80
2023-04-24T20:30:04.503Z,2.80
2023-04-24T20:32:34.504Z,2.70
2023-04-24T20:35:02.723Z,2.60
2023-04-24T20:37:30.140Z,2.60
2023-04-24T20:39:58.559Z,2.70
2023-04-24T20:42:26.364Z,2.80
2023-04-24T20:44:53.887Z,2.70
2023-04-24T20:47:21.389Z,2.80
2023-04-24T20:49:49.164Z,2.70
2023-04-24T20:52:16.602Z,2.70
2023-04-24T20:54:44.108Z,2.70
2023-04-24T20:57:11.477Z,2.80
2023-04-24T20:59:39.530Z,2.80
2023-04-24T21:02:07.297Z,2.80
2023-04-24T21:04:37.765Z,2.80
2023-04-24T21:07:09.554Z,2.80
2023-04-24T21:09:37.047Z,2.90
2023-04-24T21:12:04.677Z,2.80
2023-04-24T21:14:32.002Z,2.80
2023-04-24T21:17:00.373Z,2.80
2023-04-24T21:19:27.851Z,2.80
2023-04-24T21:21:55.373Z,2.70
2023-04-24T21:24:25.376Z,2.80
2023-04-24T21:26:54.552Z,2.80
2023-04-24T21:29:24.193Z,2.70
2023-04-24T21:31:54.270Z,2.80
2023-04-24T21:34:21.903Z,2.70
2023-04-24T21:36:49.415Z,2.70
2023-04-24T21:39:16.809Z,2.80
2023-04-24T21:41:46.745Z,2.70
2023-04-24T21:44:15.442Z,2.70
2023-04-24T21:46:43.133Z,2.80
2023-04-24T21:49:10.804Z,2.80
2023-04-24T21:51:40.333Z,2.80
2023-04-24T21:54:07.824Z,2.80
2023-04-24T21:56:35.556Z,2.80
2023-04-24T21:59:03.068Z,2.80
2023-04-24T22:01:34.547Z,2.80
2023-04-24T22:04:04.642Z,2.90
2023-04-24T22:06:34.037Z,2.80
2023-04-24T22:09:01.820Z,2.80
2023-04-24T22:11:29.398Z,2.80
2023-04-24T22:13:57.098Z,2.80
2023-04-24T22:16:24.684Z,2.70
2023-04-24T22:18:55.518Z,2.70
2023-04-24T22:21:23.191Z,2.70
2023-04-24T22:23:50.973Z,2.70
2023-04-24T22:26:18.840Z,2.80
2023-04-24T22:28:48.122Z,2.60
2023-04-24T22:31:16.296Z,2.60
2023-04-24T22:33:47.951Z,2.60
2023-04-24T22:36:16.061Z,2.60
2023-04-24T22:38:43.764Z,2.70
2023-04-24T22:41:11.365Z,2.60
2023-04-24T22:43:39.544Z,2.70
2023-04-24T22:46:09.973Z,2.60
2023-04-24T22:48:37.353Z,2.60
2023-04-24T22:51:04.924Z,2.60
2023-04-24T22:53:32.325Z,2.50
2023-04-24T22:56:00.221Z,2.60
2023-04-24T22:58:27.591Z,2.60
2023-04-24T23:00:54.942Z,2.60
2023-04-24T23:03:22.839Z,2.70
2023-04-24T23:05:50.901Z,2.70
2023-04-24T23:08:18.606Z,2.60
2023-04-24T23:10:48.402Z,2.50
2023-04-24T23:13:15.906Z,2.50
2023-04-24T23:15:43.432Z,2.40
2023-04-24T23:18:11.865Z,2.50
2023-04-24T23:20:39.356Z,2.40
2023-04-24T23:23:06.885Z,2.50
2023-04-24T23:25:34.996Z,2.40
2023-04-24T23:28:02.396Z,2.40
2023-04-24T23:30:30.051Z,2.50
2023-04-24T23:32:57.521Z,2.50
2023-04-24T23:35:27.805Z,2.50
2023-04-24T23:37:56.376Z,2.50
2023-04-24T23:40:24.624Z,2.40
2023-04-24T23:43:05.684Z,2.50
2023-04-24T23:45:34.990Z,2.40
2023-04-24T23:48:02.742Z,2.40
2023-04-24T23:50:30.179Z,2.30
2023-04-24T23:52:57.683Z,2.20
2023-04-24T23:55:25.265Z,2.20
2023-04-24T23:57:52.674Z,2.30
